Time;durP1;ratioP1;P1;durP2;ratioP2;P2;SDS_P1;SDS_P2;PMS_P1;PMS_P2;Temp;Humidity;BMP_temperature;BMP_pressure;BME280_temperature;BME280_humidity;BME280_pressure;Samples;Min_cycle;Max_cycle;Signal;HPM_P1;HPM_P2
2023/05/28 00:01:30;;;;;;;7.00;3.00;;;;;;;17.55;44.59;100681.13;107837;1257;61122;-80
2023/05/28 00:03:58;;;;;;;9.60;3.20;;;;;;;17.50;44.60;100679.35;107768;1257;60245;-78
2023/05/28 00:06:26;;;;;;;6.10;3.10;;;;;;;17.47;44.77;100680.92;107791;1257;73419;-81
2023/05/28 00:08:53;;;;;;;5.40;3.10;;;;;;;17.42;44.90;100681.83;107730;1262;71204;-79
2023/05/28 00:11:21;;;;;;;11.50;3.20;;;;;;;17.38;45.01;100681.27;107699;1257;72472;-81
2023/05/28 00:13:49;;;;;;;7.40;3.00;;;;;;;17.34;45.06;100681.98;107643;1257;62349;-80
2023/05/28 00:16:16;;;;;;;7.00;3.10;;;;;;;17.29;45.31;100689.69;107845;1257;61115;-79
2023/05/28 00:18:44;;;;;;;6.70;3.10;;;;;;;17.26;45.43;100692.00;107846;1257;75157;-79
2023/05/28 00:21:11;;;;;;;7.70;3.60;;;;;;;17.20;45.49;100691.85;107645;1259;72497;-82
2023/05/28 00:23:41;;;;;;;7.40;3.10;;;;;;;17.16;45.65;100696.17;107754;1259;71331;-81
2023/05/28 00:26:09;;;;;;;7.00;3.00;;;;;;;17.14;45.79;100699.04;107730;1259;61132;-79
2023/05/28 00:28:36;;;;;;;8.40;3.10;;;;;;;17.08;45.82;100699.27;107671;1257;61134;-79
2023/05/28 00:31:04;;;;;;;6.60;3.00;;;;;;;17.05;45.89;100696.22;107682;1257;73433;-79
2023/05/28 00:33:32;;;;;;;6.50;3.00;;;;;;;17.02;45.97;100698.54;107731;1257;71636;-78
2023/05/28 00:35:59;;;;;;;7.10;3.10;;;;;;;16.99;46.12;100700.42;107684;1259;72760;-79
2023/05/28 00:38:27;;;;;;;10.50;3.40;;;;;;;16.96;46.23;100699.93;107735;1258;61256;-78
2023/05/28 00:40:55;;;;;;;7.70;3.60;;;;;;;16.92;46.57;100695.25;107645;1258;61250;-81
2023/05/28 00:43:23;;;;;;;10.20;3.10;;;;;;;16.86;46.62;100693.61;107802;1257;72757;-81
2023/05/28 00:45:50;;;;;;;7.60;3.30;;;;;;;16.83;46.70;100693.30;107690;1262;71716;-81
2023/05/28 00:48:19;;;;;;;5.70;3.10;;;;;;;16.78;46.83;100695.27;107658;1260;72688;-80
2023/05/28 00:50:47;;;;;;;9.50;3.10;;;;;;;16.75;46.92;100697.84;107637;1257;61168;-78
2023/05/28 00:53:15;;;;;;;9.60;3.50;;;;;;;16.72;47.00;100702.15;107773;1257;61115;-80
2023/05/28 00:55:42;;;;;;;8.70;4.00;;;;;;;16.67;46.95;100701.51;107843;1257;73808;-80
2023/05/28 00:58:10;;;;;;;11.40;3.40;;;;;;;16.63;47.20;100705.13;107725;1259;72822;-81
2023/05/28 01:00:39;;;;;;;11.50;3.60;;;;;;;16.58;47.38;100704.06;107662;1258;71405;-78
2023/05/28 01:03:07;;;;;;;5.10;2.70;;;;;;;16.53;47.57;100705.51;107658;1258;61068;-79
2023/05/28 01:05:36;;;;;;;9.90;3.30;;;;;;;16.48;47.64;100709.36;107689;1259;61374;-79
2023/05/28 01:08:06;;;;;;;8.00;3.40;;;;;;;16.43;47.67;100712.23;107609;1259;74668;-80
2023/05/28 01:10:34;;;;;;;7.10;3.20;;;;;;;16.39;47.76;100717.84;107734;1257;72735;-79
2023/05/28 01:13:03;;;;;;;7.90;3.10;;;;;;;16.35;47.75;100714.50;107831;1258;71340;-78
2023/05/28 01:15:31;;;;;;;7.00;3.30;;;;;;;16.30;47.95;100719.27;107707;1259;61118;-80
2023/05/28 01:18:00;;;;;;;6.80;3.10;;;;;;;16.24;48.12;100716.37;107807;1259;61203;-81
2023/05/28 01:20:29;;;;;;;8.60;3.60;;;;;;;16.18;48.17;100718.09;107797;1259;73537;-81
2023/05/28 01:23:05;;;;;;;9.40;3.20;;;;;;;16.13;48.22;100720.73;107633;1257;75056;-79
2023/05/28 01:25:33;;;;;;;8.70;3.30;;;;;;;16.07;48.44;100723.06;107751;1257;71105;-79
2023/05/28 01:28:01;;;;;;;9.10;3.20;;;;;;;16.03;48.52;100720.05;107723;1259;61713;-79
2023/05/28 01:30:29;;;;;;;6.90;3.30;;;;;;;15.98;48.79;100723.67;107626;1259;59066;-79
2023/05/28 01:32:57;;;;;;;7.70;3.10;;;;;;;15.93;48.84;100728.36;107629;1257;74772;-80
2023/05/28 01:35:25;;;;;;;7.20;3.30;;;;;;;15.88;48.90;100723.48;107800;1257;71465;-79
2023/05/28 01:37:53;;;;;;;6.30;3.00;;;;;;;15.85;49.02;100722.43;107516;1258;72146;-80
2023/05/28 01:40:21;;;;;;;6.00;3.10;;;;;;;15.82;49.10;100728.28;107482;1260;61336;-81
2023/05/28 01:42:49;;;;;;;8.70;3.10;;;;;;;15.77;49.03;100732.27;107776;1257;61047;-79
2023/05/28 01:45:17;;;;;;;7.90;3.00;;;;;;;15.74;49.10;100731.89;107630;1257;72839;-78
2023/05/28 01:47:46;;;;;;;7.20;2.90;;;;;;;15.72;49.19;100737.45;107637;1257;72731;-80
2023/05/28 01:50:14;;;;;;;8.50;3.00;;;;;;;15.70;49.33;100740.02;107655;1257;72640;-79
2023/05/28 01:52:44;;;;;;;7.70;3.30;;;;;;;15.67;49.41;100743.48;107757;1257;61363;-79
2023/05/28 01:55:13;;;;;;;8.90;3.40;;;;;;;15.66;49.47;100751.67;107686;1257;60019;-79
2023/05/28 01:57:44;;;;;;;5.50;2.70;;;;;;;15.64;49.59;100748.23;107763;1257;73057;-80
2023/05/28 02:00:14;;;;;;;5.50;3.40;;;;;;;15.61;49.61;100752.77;107583;1257;72544;-79
2023/05/28 02:02:42;;;;;;;6.20;3.00;;;;;;;15.57;49.71;100750.35;107679;1259;74073;-79
2023/05/28 02:05:13;;;;;;;6.90;3.20;;;;;;;15.54;49.86;100754.85;107583;1257;61139;-79
2023/05/28 02:07:41;;;;;;;8.50;3.10;;;;;;;15.51;49.97;100754.13;107670;1257;60085;-79
2023/05/28 02:10:09;;;;;;;8.50;3.30;;;;;;;15.48;50.04;100754.80;107870;1257;74744;-81
2023/05/28 02:12:37;;;;;;;8.40;3.80;;;;;;;15.46;50.17;100754.49;107813;1257;75108;-79
2023/05/28 02:15:06;;;;;;;8.10;3.00;;;;;;;15.44;50.27;100753.98;107734;1259;71328;-80
2023/05/28 02:17:35;;;;;;;5.30;2.70;;;;;;;15.40;50.55;100755.25;107615;1260;61131;-80
2023/05/28 02:20:04;;;;;;;8.00;3.20;;;;;;;15.37;50.70;100757.50;107644;1259;61209;-80
2023/05/28 02:22:31;;;;;;;5.90;2.70;;;;;;;15.34;50.85;100757.34;107736;1259;74675;-80
2023/05/28 02:24:59;;;;;;;7.90;3.10;;;;;;;15.33;51.02;100757.53;107688;1259;72722;-80
2023/05/28 02:27:27;;;;;;;5.70;3.10;;;;;;;15.31;51.20;100759.44;107613;1257;72700;-80
2023/05/28 02:29:54;;;;;;;6.80;3.40;;;;;;;15.28;51.35;100759.84;107549;1258;61366;-80
2023/05/28 02:32:22;;;;;;;5.50;2.90;;;;;;;15.26;51.46;100762.42;107618;1257;61155;-79
2023/05/28 02:34:54;;;;;;;7.80;3.50;;;;;;;15.25;51.66;100759.70;107807;1259;74759;-79
2023/05/28 02:37:23;;;;;;;8.60;2.80;;;;;;;15.25;51.80;100763.79;107667;1257;71988;-80
2023/05/28 02:39:52;;;;;;;6.70;3.20;;;;;;;15.23;51.93;100758.00;107594;1258;72834;-81
2023/05/28 02:42:19;;;;;;;5.30;2.50;;;;;;;15.24;51.91;100760.46;107669;1259;59606;-80
2023/05/28 02:44:48;;;;;;;9.20;3.20;;;;;;;15.23;51.96;100755.95;107523;1257;200420;-80
2023/05/28 02:47:16;;;;;;;6.10;3.30;;;;;;;15.22;51.89;100756.48;107603;1259;74643;-81
2023/05/28 02:49:44;;;;;;;5.60;2.60;;;;;;;15.22;51.88;100757.02;107564;1257;71788;-80
2023/05/28 02:52:12;;;;;;;7.80;3.30;;;;;;;15.23;51.82;100759.92;107760;1257;70472;-80
2023/05/28 02:54:45;;;;;;;5.60;3.10;;;;;;;15.24;51.71;100759.23;107703;1257;61209;-80
2023/05/28 02:57:13;;;;;;;7.80;3.00;;;;;;;15.27;51.56;100760.98;107648;1257;61785;-80
2023/05/28 02:59:41;;;;;;;6.90;2.80;;;;;;;15.29;51.55;100759.07;107656;1257;74651;-80
2023/05/28 03:02:09;;;;;;;6.70;3.00;;;;;;;15.32;51.56;100755.65;107783;1257;71466;-80
2023/05/28 03:04:37;;;;;;;5.80;2.80;;;;;;;15.35;51.38;100757.30;107612;1257;71818;-80
2023/05/28 03:07:05;;;;;;;7.30;2.90;;;;;;;15.36;51.21;100764.02;107806;1259;61712;-80
2023/05/28 03:09:36;;;;;;;5.30;3.00;;;;;;;15.39;51.19;100763.72;107732;1257;61354;-79
2023/05/28 03:12:04;;;;;;;6.50;2.90;;;;;;;15.42;51.14;100765.36;107738;1258;73372;-79
2023/05/28 03:14:33;;;;;;;6.20;2.80;;;;;;;15.43;50.91;100772.23;107696;1257;71452;-80
2023/05/28 03:17:01;;;;;;;7.50;2.90;;;;;;;15.46;50.93;100776.63;107631;1259;72671;-80
2023/05/28 03:19:30;;;;;;;6.60;3.40;;;;;;;15.48;50.80;100781.11;107646;1259;61277;-80
2023/05/28 03:21:58;;;;;;;6.30;3.10;;;;;;;15.51;50.61;100786.44;107661;1257;61164;-80
2023/05/28 03:24:31;;;;;;;6.30;2.80;;;;;;;15.54;50.52;100789.63;107676;1261;73451;-80
2023/05/28 03:26:59;;;;;;;5.50;2.60;;;;;;;15.58;50.64;100792.43;107797;1257;72650;-80
2023/05/28 03:29:27;;;;;;;5.60;2.50;;;;;;;15.63;50.77;100791.31;107698;1259;72747;-79
2023/05/28 03:32:18;;;;;;;5.10;3.20;;;;;;;15.68;50.77;100787.85;107705;1260;61136;-79
2023/05/28 03:34:46;;;;;;;8.10;2.90;;;;;;;15.72;50.71;100787.85;107591;1257;61143;-80
2023/05/28 03:37:14;;;;;;;9.30;3.10;;;;;;;15.77;50.39;100790.77;107647;1258;74718;-79
2023/05/28 03:39:43;;;;;;;7.70;2.80;;;;;;;15.81;50.08;100792.09;107599;1257;71423;-80
2023/05/28 03:42:11;;;;;;;7.00;2.90;;;;;;;15.83;49.73;100795.02;107709;1259;71416;-79
2023/05/28 03:44:38;;;;;;;6.60;2.90;;;;;;;15.85;49.60;100790.62;107667;1259;61292;-80
2023/05/28 03:47:06;;;;;;;7.70;2.60;;;;;;;15.88;49.41;100791.89;107798;1257;61174;-80
2023/05/28 03:49:34;;;;;;;6.40;2.50;;;;;;;15.92;49.13;100788.19;107649;1257;74702;-79
2023/05/28 03:52:02;;;;;;;6.80;2.90;;;;;;;15.94;48.55;100789.41;107644;1258;72752;-80
2023/05/28 03:54:34;;;;;;;6.20;2.70;;;;;;;15.96;48.32;100788.62;107598;1257;72151;-80
2023/05/28 03:57:01;;;;;;;6.60;2.60;;;;;;;15.97;47.94;100790.55;107660;1260;61287;-79
2023/05/28 03:59:29;;;;;;;6.00;2.70;;;;;;;16.00;47.91;100796.34;107658;1257;61096;-79
2023/05/28 04:01:57;;;;;;;5.70;2.60;;;;;;;16.04;47.77;100794.03;107601;1257;74693;-82
2023/05/28 04:04:24;;;;;;;7.00;2.70;;;;;;;16.07;47.68;100791.73;107748;1257;71485;-80
2023/05/28 04:06:52;;;;;;;6.30;2.80;;;;;;;16.12;47.78;100791.08;107816;1257;71550;-80
2023/05/28 04:09:20;;;;;;;7.20;2.50;;;;;;;16.16;47.56;100787.95;107629;1263;61118;-81
2023/05/28 04:11:47;;;;;;;5.70;2.50;;;;;;;16.19;47.40;100790.84;107608;1257;59475;-80
2023/05/28 04:14:15;;;;;;;9.60;3.00;;;;;;;16.25;47.41;100791.41;107648;1258;72805;-80
2023/05/28 04:16:43;;;;;;;8.20;2.80;;;;;;;16.30;47.18;100793.13;107711;1259;72647;-80
2023/05/28 04:19:11;;;;;;;4.90;2.70;;;;;;;16.34;46.92;100796.51;107638;1259;72822;-79
2023/05/28 04:21:39;;;;;;;6.00;2.70;;;;;;;16.39;46.83;100795.10;107661;1258;62289;-80
2023/05/28 04:24:07;;;;;;;8.00;3.00;;;;;;;16.45;46.91;100797.84;107641;1257;60085;-80
2023/05/28 04:26:34;;;;;;;5.60;2.60;;;;;;;16.51;46.81;100797.15;107820;1257;73613;-80
2023/05/28 04:29:02;;;;;;;5.30;2.50;;;;;;;16.59;46.50;100798.22;107639;1259;71639;-81
2023/05/28 04:31:30;;;;;;;6.90;3.00;;;;;;;16.67;46.01;100796.60;107552;1258;71458;-80
2023/05/28 04:34:00;;;;;;;5.50;2.80;;;;;;;16.77;45.79;100800.80;107748;1257;61279;-80
2023/05/28 04:36:33;;;;;;;6.60;2.80;;;;;;;16.85;45.65;100805.18;107583;1257;61328;-80
2023/05/28 04:39:03;;;;;;;7.00;3.00;;;;;;;16.92;45.36;100800.69;107751;1257;72564;-80
2023/05/28 04:41:31;;;;;;;7.10;2.20;;;;;;;16.97;45.19;100799.91;107598;1259;71615;-81
2023/05/28 04:43:59;;;;;;;6.60;2.70;;;;;;;17.06;45.59;100797.88;107535;1258;71774;-80
2023/05/28 04:46:29;;;;;;;6.80;2.60;;;;;;;17.16;44.38;100796.80;107761;1257;61250;-80
2023/05/28 04:48:58;;;;;;;6.60;2.30;;;;;;;17.27;43.96;100796.30;107533;1257;61218;-80
2023/05/28 04:51:27;;;;;;;5.80;2.50;;;;;;;17.37;43.74;100800.41;107609;1257;74582;-81
2023/05/28 04:53:55;;;;;;;7.10;2.60;;;;;;;17.45;43.38;100802.69;107711;1257;72964;-80
2023/05/28 04:56:23;;;;;;;6.00;2.30;;;;;;;17.51;43.14;100807.02;107641;1257;71458;-80
2023/05/28 04:58:51;;;;;;;5.50;2.40;;;;;;;17.57;43.47;100809.77;107632;1258;61139;-81
2023/05/28 05:01:20;;;;;;;4.30;2.30;;;;;;;17.64;43.11;100805.33;107677;1257;60174;-80
2023/05/28 05:03:48;;;;;;;5.60;2.20;;;;;;;17.74;42.08;100809.63;107646;1257;74615;-80
2023/05/28 05:06:16;;;;;;;3.80;2.10;;;;;;;17.85;41.27;100803.34;107612;1257;72733;-79
2023/05/28 05:08:43;;;;;;;5.60;1.90;;;;;;;17.93;40.61;100805.77;107576;1261;72678;-80
2023/05/28 05:11:13;;;;;;;5.70;2.50;;;;;;;17.99;40.72;100809.27;107685;1259;61176;-81
2023/05/28 05:13:41;;;;;;;6.60;2.20;;;;;;;18.10;40.46;100809.17;107700;1257;60989;-80
2023/05/28 05:16:09;;;;;;;4.60;2.10;;;;;;;18.21;39.93;100802.52;107747;1259;74688;-81
2023/05/28 05:18:36;;;;;;;5.00;2.40;;;;;;;18.31;39.70;100803.01;107645;1257;72985;-81
2023/05/28 05:21:04;;;;;;;4.10;2.10;;;;;;;18.41;39.16;100807.62;107627;1258;72662;-81
2023/05/28 05:23:32;;;;;;;6.70;2.30;;;;;;;18.45;38.84;100807.22;107764;1263;61425;-80
2023/05/28 05:26:00;;;;;;;5.80;2.20;;;;;;;18.49;38.73;100807.98;107650;1257;61156;-81
2023/05/28 05:28:27;;;;;;;6.50;2.40;;;;;;;18.53;38.22;100817.06;107739;1257;73390;-79
2023/05/28 05:30:55;;;;;;;4.70;2.00;;;;;;;18.49;38.18;100816.54;107655;1259;72934;-82
2023/05/28 05:33:23;;;;;;;5.40;2.30;;;;;;;18.48;38.33;100813.73;107582;1259;71502;-79
2023/05/28 05:36:20;;;;;;;3.60;2.00;;;;;;;18.53;38.43;100814.29;107436;1268;61427;-81
2023/05/28 05:39:05;;;;;;;5.20;2.40;;;;;;;18.57;38.54;100817.38;107750;1257;61148;-81
2023/05/28 05:41:46;;;;;;;5.50;2.10;;;;;;;18.65;38.55;100823.76;107849;1258;73394;-80
2023/05/28 05:44:19;;;;;;;5.00;2.40;;;;;;;18.76;38.23;100819.72;107897;1258;72047;-81
2023/05/28 05:46:47;;;;;;;5.40;2.10;;;;;;;18.84;38.05;100822.62;107771;1259;72540;-80
2023/05/28 05:49:15;;;;;;;3.40;1.90;;;;;;;18.90;38.08;100818.78;107686;1258;61107;-80
2023/05/28 05:51:42;;;;;;;4.60;2.00;;;;;;;18.98;37.75;100817.48;107809;1264;61158;-80
2023/05/28 05:54:10;;;;;;;5.30;1.90;;;;;;;19.05;37.66;100819.89;107811;1258;73474;-80
2023/05/28 05:56:37;;;;;;;6.00;1.90;;;;;;;19.12;37.38;100822.40;107787;1258;72718;-82
2023/05/28 05:59:05;;;;;;;6.00;2.00;;;;;;;19.15;37.31;100819.61;107806;1262;73107;-80
2023/05/28 06:01:33;;;;;;;3.90;1.80;;;;;;;19.21;37.58;100818.82;107713;1259;60667;-80
2023/05/28 06:04:00;;;;;;;6.10;2.10;;;;;;;19.30;37.33;100821.40;107683;1257;61200;-81
2023/05/28 06:06:47;;;;;;;6.50;2.90;;;;;;;19.32;37.28;100829.85;107626;1257;74733;-82
2023/05/28 06:09:33;;;;;;;4.90;2.00;;;;;;;19.39;36.79;100823.63;107695;1257;71887;-81
2023/05/28 06:12:10;;;;;;;5.20;1.60;;;;;;;19.42;37.10;100818.23;107619;1260;70603;-81
2023/05/28 06:14:38;;;;;;;5.80;1.60;;;;;;;19.50;37.16;100819.00;107692;1257;61339;-83
2023/05/28 06:17:05;;;;;;;5.50;2.00;;;;;;;19.61;37.15;100823.23;107643;1257;61248;-80
2023/05/28 06:19:33;;;;;;;3.70;1.90;;;;;;;19.71;37.20;100823.41;107750;1258;74721;-81
2023/05/28 06:22:03;;;;;;;5.10;2.00;;;;;;;19.85;36.87;100825.20;107684;1257;71710;-80
2023/05/28 06:24:32;;;;;;;4.70;1.70;;;;;;;19.98;36.36;100822.63;107599;1263;72706;-79
2023/05/28 06:26:59;;;;;;;3.40;1.80;;;;;;;20.03;36.24;100821.94;107552;1261;61135;-80
2023/05/28 06:29:28;;;;;;;4.30;2.10;;;;;;;20.09;36.39;100816.90;107698;1258;61334;-81
2023/05/28 06:31:55;;;;;;;5.00;2.00;;;;;;;20.11;36.20;100817.92;107632;1258;73404;-80
2023/05/28 06:34:23;;;;;;;5.10;2.00;;;;;;;20.11;36.30;100816.25;107759;1259;72943;-80
2023/05/28 06:36:51;;;;;;;4.00;1.80;;;;;;;20.20;36.45;100814.79;107746;1259;72744;-80
2023/05/28 06:39:19;;;;;;;7.70;2.20;;;;;;;20.31;36.29;100821.80;107608;1260;61125;-80
2023/05/28 06:41:49;;;;;;;4.80;2.00;;;;;;;20.44;36.32;100820.08;107726;1257;61216;-80
2023/05/28 06:44:30;;;;;;;5.70;2.20;;;;;;;20.60;36.33;100811.46;107649;1258;73723;-81
2023/05/28 06:47:03;;;;;;;5.90;2.00;;;;;;;20.71;36.03;100812.13;107678;1258;75012;-81
2023/05/28 06:49:31;;;;;;;7.30;2.50;;;;;;;20.78;35.61;100813.64;107616;1260;73147;-81
2023/05/28 06:51:59;;;;;;;7.30;1.90;;;;;;;20.81;35.42;100812.88;107773;1257;61147;-80
2023/05/28 06:54:27;;;;;;;6.10;2.10;;;;;;;20.83;35.35;100811.98;107717;1258;59791;-81
2023/05/28 06:56:55;;;;;;;5.50;2.10;;;;;;;20.85;35.40;100808.73;107502;1259;74726;-82
2023/05/28 06:59:41;;;;;;;4.80;1.90;;;;;;;20.92;35.77;100810.10;107706;1258;72690;-81
2023/05/28 07:02:27;;;;;;;4.70;2.10;;;;;;;21.02;35.22;100808.81;107658;1259;72779;-79
2023/05/28 07:05:15;;;;;;;5.30;2.60;;;;;;;21.06;35.22;100806.77;107618;1259;61110;-80
2023/05/28 07:07:43;;;;;;;3.60;1.90;;;;;;;21.12;35.12;100801.59;107674;1258;61321;-80
2023/05/28 07:10:10;;;;;;;6.10;2.50;;;;;;;21.20;35.66;100804.65;107708;1258;73537;-81
2023/05/28 07:12:42;;;;;;;5.40;2.20;;;;;;;21.26;35.61;100799.70;107672;1257;71370;-79
2023/05/28 07:15:10;;;;;;;5.20;2.10;;;;;;;21.35;36.02;100793.89;107685;1259;70440;-80
2023/05/28 07:17:39;;;;;;;5.10;2.10;;;;;;;21.46;35.72;100789.08;107612;1259;60508;-81
2023/05/28 07:20:08;;;;;;;7.40;2.00;;;;;;;21.56;34.80;100789.80;107546;1258;61263;-80
2023/05/28 07:22:48;;;;;;;6.90;2.00;;;;;;;21.51;34.27;100786.12;107552;1258;73813;-80
2023/05/28 07:25:16;;;;;;;5.40;1.90;;;;;;;21.49;34.74;100787.57;107773;1258;71592;-81
2023/05/28 07:27:43;;;;;;;6.00;2.20;;;;;;;21.52;34.79;100787.48;107581;1259;71475;-80
2023/05/28 07:30:14;;;;;;;5.10;1.90;;;;;;;21.56;34.96;100785.83;107617;1260;61400;-80
2023/05/28 07:32:41;;;;;;;5.70;2.40;;;;;;;21.61;35.25;100779.04;107690;1258;61160;-80
2023/05/28 07:35:09;;;;;;;5.70;2.20;;;;;;;21.68;35.13;100775.39;107722;1258;73360;-81
2023/05/28 07:37:38;;;;;;;6.60;1.80;;;;;;;21.81;34.50;100770.80;107826;1257;72170;-80
2023/05/28 07:40:07;;;;;;;7.30;2.20;;;;;;;21.90;34.12;100768.80;107667;1258;72649;-80
2023/05/28 07:42:35;;;;;;;4.50;1.90;;;;;;;21.95;33.86;100768.77;107737;1259;61311;-81
2023/05/28 07:45:06;;;;;;;5.30;2.40;;;;;;;22.01;33.92;100763.73;107794;1260;61222;-80
2023/05/28 07:47:34;;;;;;;6.50;2.20;;;;;;;22.10;33.77;100765.01;107719;1258;74734;-81
2023/05/28 07:50:05;;;;;;;7.00;1.80;;;;;;;22.24;33.78;100771.10;107675;1258;71849;-80
2023/05/28 07:52:52;;;;;;;5.10;1.80;;;;;;;22.37;32.90;100766.14;107745;1258;71462;-81
2023/05/28 07:55:21;;;;;;;4.10;2.10;;;;;;;22.38;32.56;100763.55;107646;1260;61135;-79
2023/05/28 07:57:49;;;;;;;5.50;1.80;;;;;;;22.40;32.28;100765.25;107746;1257;61755;-81
2023/05/28 08:00:17;;;;;;;5.40;1.80;;;;;;;22.39;31.99;100761.32;107747;1257;72988;-80
2023/05/28 08:02:59;;;;;;;4.90;2.00;;;;;;;22.41;32.08;100758.91;107731;1257;71451;-79
2023/05/28 08:05:38;;;;;;;6.30;1.90;;;;;;;22.51;31.89;100756.31;107790;1259;71892;-80
2023/05/28 08:08:06;;;;;;;5.10;1.80;;;;;;;22.57;31.80;100754.45;107673;1257;60165;-81
2023/05/28 08:10:35;;;;;;;3.90;1.90;;;;;;;22.67;32.25;100757.60;107672;1259;59353;-81
2023/05/28 08:13:03;;;;;;;3.80;1.60;;;;;;;22.83;32.55;100757.31;107776;1259;72955;-80
2023/05/28 08:15:30;;;;;;;5.30;1.70;;;;;;;22.87;33.13;100762.85;107750;1259;71442;-80
2023/05/28 08:17:59;;;;;;;5.40;1.90;;;;;;;22.84;33.23;100757.27;107772;1259;71827;-80
2023/05/28 08:20:29;;;;;;;6.00;1.90;;;;;;;22.89;33.13;100759.40;107749;1257;61254;-81
2023/05/28 08:23:20;;;;;;;5.80;1.80;;;;;;;22.96;32.89;100752.45;107762;1258;61101;-80
2023/05/28 08:25:49;;;;;;;5.40;1.80;;;;;;;22.99;33.19;100750.30;107742;1257;74736;-83
2023/05/28 08:28:23;;;;;;;7.10;2.20;;;;;;;22.96;32.67;100747.98;107610;1258;73012;-81
2023/05/28 08:30:51;;;;;;;5.20;2.00;;;;;;;22.90;32.99;100756.48;107748;1259;70468;-82
2023/05/28 08:33:45;;;;;;;9.00;1.70;;;;;;;22.84;32.78;100746.06;107770;1257;60051;-82
2023/05/28 08:36:13;;;;;;;5.40;2.30;;;;;;;22.82;33.09;100741.64;107631;1259;61196;-81
2023/05/28 08:38:42;;;;;;;5.40;2.00;;;;;;;22.85;32.93;100740.02;107812;1259;73024;-81
2023/05/28 08:41:10;;;;;;;5.00;1.80;;;;;;;22.90;32.85;100749.77;107771;1259;72521;-81
2023/05/28 08:43:38;;;;;;;6.00;1.90;;;;;;;22.94;32.52;100754.77;107665;1257;72779;-80
2023/05/28 08:46:06;;;;;;;4.60;1.80;;;;;;;22.93;32.43;100752.77;107703;1257;61116;-80
2023/05/28 08:48:40;;;;;;;5.60;2.00;;;;;;;22.95;31.89;100751.86;107635;1258;61247;-81
2023/05/28 08:51:08;;;;;;;5.00;1.80;;;;;;;22.94;31.79;100749.73;107625;1261;75087;-80
2023/05/28 08:53:46;;;;;;;5.40;2.10;;;;;;;22.93;32.11;100746.73;107581;1257;73027;-81
2023/05/28 08:56:20;;;;;;;4.90;2.10;;;;;;;22.96;31.91;100750.94;107803;1259;71819;-80
2023/05/28 08:58:49;;;;;;;6.70;2.10;;;;;;;22.97;31.43;100750.73;107669;1259;61393;-82
2023/05/28 09:01:16;;;;;;;6.60;2.30;;;;;;;22.97;31.48;100753.55;107645;1260;61139;-80
2023/05/28 09:03:59;;;;;;;5.70;2.10;;;;;;;22.99;31.32;100747.39;107824;1259;72643;-82
2023/05/28 09:06:31;;;;;;;4.30;2.00;;;;;;;23.04;31.80;100747.66;107808;1259;71596;-81
2023/05/28 09:08:59;;;;;;;4.60;2.20;;;;;;;23.14;31.07;100757.34;107602;1259;71490;-82
2023/05/28 09:11:38;;;;;;;6.60;2.00;;;;;;;23.16;31.08;100759.13;107628;1260;61375;-80
2023/05/28 09:14:12;;;;;;;5.80;2.30;;;;;;;23.19;30.72;100758.03;107710;1260;60275;-81
2023/05/28 09:16:41;;;;;;;6.10;2.00;;;;;;;23.24;31.16;100758.70;107622;1258;74712;-83
2023/05/28 09:19:14;;;;;;;4.60;2.30;;;;;;;23.33;30.89;100753.94;107547;1260;72098;-82
2023/05/28 09:21:53;;;;;;;4.60;1.80;;;;;;;23.40;30.70;100747.56;107628;1261;70602;-80
2023/05/28 09:24:22;;;;;;;8.10;2.70;;;;;;;23.45;30.50;100744.66;107662;1260;61246;-80
2023/05/28 09:27:17;;;;;;;6.80;2.50;;;;;;;23.46;30.64;100745.73;107727;1260;61080;-81
2023/05/28 09:29:45;;;;;;;9.90;6.50;;;;;;;23.50;30.35;100745.60;107664;1258;73389;-80
2023/05/28 09:32:17;;;;;;;9.30;5.30;;;;;;;23.55;29.85;100751.70;107834;1259;72787;-81
2023/05/28 09:34:44;;;;;;;;;;;;;;;23.57;29.43;100743.06;107672;1260;72671;-82
2023/05/28 09:37:12;;;;;;;6.50;1.90;;;;;;;23.62;29.75;100740.64;107758;1259;61055;-80
2023/05/28 09:39:39;;;;;;;5.00;2.10;;;;;;;23.67;29.95;100744.84;107589;1258;61245;-79
2023/05/28 09:42:09;;;;;;;5.10;2.10;;;;;;;23.68;29.76;100743.00;107804;1257;72959;-80
2023/05/28 09:44:38;;;;;;;4.50;2.00;;;;;;;23.69;29.14;100740.09;107825;1258;72732;-80
2023/05/28 09:47:16;;;;;;;4.20;2.10;;;;;;;23.66;28.98;100753.86;107845;1257;72730;-80
2023/05/28 09:49:45;;;;;;;4.90;2.10;;;;;;;23.57;29.28;100747.17;107792;1260;61282;-80
2023/05/28 09:52:18;;;;;;;4.70;1.90;;;;;;;23.60;29.84;100739.79;107801;1259;61107;-80
2023/05/28 09:54:53;;;;;;;4.40;1.90;;;;;;;23.73;29.26;100738.90;107778;1258;73639;-81
2023/05/28 09:57:26;;;;;;;4.00;1.90;;;;;;;23.82;29.21;100741.22;107850;1257;72747;-80
2023/05/28 09:59:57;;;;;;;5.60;1.90;;;;;;;23.89;28.82;100743.98;107653;1259;71504;-80
2023/05/28 10:02:46;;;;;;;4.70;1.80;;;;;;;23.94;28.54;100739.63;107798;1259;60671;-80
2023/05/28 10:05:15;;;;;;;3.50;1.50;;;;;;;23.97;28.16;100746.83;107721;1259;61132;-81
2023/05/28 10:07:44;;;;;;;3.80;1.70;;;;;;;23.98;27.81;100732.82;107809;1262;75155;-81
2023/05/28 10:10:13;;;;;;;5.10;1.80;;;;;;;23.98;27.72;100737.09;107715;1258;72811;-80
2023/05/28 10:12:41;;;;;;;4.50;1.80;;;;;;;23.97;27.84;100738.94;107789;1258;72831;-81
2023/05/28 10:15:09;;;;;;;5.70;1.90;;;;;;;24.00;28.27;100746.21;107700;1257;62332;-79
2023/05/28 10:17:37;;;;;;;4.10;1.60;;;;;;;24.04;28.68;100743.71;107583;1258;61310;-79
2023/05/28 10:20:10;;;;;;;4.30;2.10;;;;;;;24.20;28.44;100744.09;107799;1258;74688;-81
2023/05/28 10:22:38;;;;;;;3.00;1.70;;;;;;;24.34;28.51;100739.36;107813;1262;71130;-82
2023/05/28 10:25:10;;;;;;;5.30;2.20;;;;;;;24.44;28.15;100736.38;107760;1258;70979;-80
2023/05/28 10:27:44;;;;;;;4.00;2.10;;;;;;;24.34;27.07;100735.08;107709;1257;61106;-80
2023/05/28 10:30:15;;;;;;;5.10;2.10;;;;;;;24.16;27.58;100733.60;107787;1259;60632;-80
2023/05/28 10:32:42;;;;;;;4.90;1.90;;;;;;;24.21;28.28;100733.50;107828;1259;74623;-80
2023/05/28 10:35:13;;;;;;;4.50;1.70;;;;;;;24.36;27.77;100726.30;107817;1259;73162;-80
2023/05/28 10:37:41;;;;;;;4.30;1.80;;;;;;;24.42;27.47;100723.05;107809;1259;72728;-79
2023/05/28 10:40:09;;;;;;;5.10;1.80;;;;;;;24.36;26.91;100723.36;107687;1260;61262;-79
2023/05/28 10:42:41;;;;;;;4.10;2.10;;;;;;;24.21;26.96;100726.10;107673;1258;61135;-80
2023/05/28 10:45:12;;;;;;;3.10;1.70;;;;;;;24.13;27.26;100731.09;107761;1260;72731;-80
2023/05/28 10:47:51;;;;;;;3.00;1.70;;;;;;;24.21;27.03;100728.61;107640;1258;72841;-78
2023/05/28 10:50:19;;;;;;;4.30;1.80;;;;;;;24.28;27.12;100727.55;107673;1263;71411;-78
2023/05/28 10:53:06;;;;;;;5.90;1.90;;;;;;;24.26;26.71;100728.74;107822;1259;61116;-78
2023/05/28 10:55:50;;;;;;;5.30;1.90;;;;;;;24.27;26.82;100728.15;107693;1260;61318;-78
2023/05/28 10:58:32;;;;;;;3.70;1.90;;;;;;;24.35;27.74;100724.55;107692;1259;74694;-78
2023/05/28 11:01:04;;;;;;;3.90;1.70;;;;;;;24.53;27.37;100721.59;107792;1262;72744;-80
2023/05/28 11:03:55;;;;;;;3.90;1.70;;;;;;;24.67;26.16;100721.51;107608;1263;71570;-79
2023/05/28 11:06:25;;;;;;;5.90;1.80;;;;;;;24.73;26.23;100728.71;107654;1257;62212;-80
2023/05/28 11:08:53;;;;;;;6.30;2.00;;;;;;;24.72;26.06;100724.76;107852;1258;60290;-80
2023/05/28 11:11:21;;;;;;;3.20;1.50;;;;;;;24.68;26.48;100734.65;92709;1258;20002718;-77
2023/05/28 11:14:01;;;;;;;4.90;1.80;;;;;;;24.71;25.86;100730.75;99980;1265;10002451;-78
2023/05/28 11:16:31;;;;;;;4.50;1.90;;;;;;;24.74;26.14;100729.52;107541;1262;72946;-79
2023/05/28 11:19:03;;;;;;;3.50;1.40;;;;;;;24.77;25.50;100727.41;107487;1258;73289;-77
2023/05/28 11:21:32;;;;;;;3.20;1.70;;;;;;;24.67;25.72;100729.54;107576;1260;62196;-79
2023/05/28 11:24:04;;;;;;;3.70;1.70;;;;;;;24.63;26.11;100730.29;107536;1258;62503;-78
2023/05/28 11:26:32;;;;;;;2.70;1.40;;;;;;;24.68;25.53;100727.69;107665;1262;73823;-78
2023/05/28 11:29:00;;;;;;;5.10;1.80;;;;;;;24.67;25.39;100725.09;107505;1258;72736;-78
2023/05/28 11:31:30;;;;;;;4.80;1.80;;;;;;;24.61;25.47;100722.91;107565;1260;71769;-79